Homestead National Monument, Nebraska
Current Conditions -  °F | °C
As of 10:15 AM on Saturday 25 Oct 2014 (Local Time) from KBIE Reporting Station
Clear Clear  
Wind Chill: 60°   Ceiling: Unl
Heat Index: 60°   Visibility: 10mi
Dew Point: 52°   Wind: 5mph
Humidity: 76%   Direction: 60°ENE
Pressure: 30.1"   Gusts: NA
Location:  40.2674°N, 96.7699°W
Report Text: KBIE 251515Z AUTO 06004KT 10SM CLR 16/11 A3010 RMK AO2 T01550113
Loading
Personal Weather Stations






























Interactive Weather Map
Tropical Storm Tracking
New forecast layout! Learn more

10-Day Weather Forecast

Advertisements
Track Severe Weather on mobile